Time;durP1;ratioP1;P1;durP2;ratioP2;P2;SDS_P1;SDS_P2;PMS_P1;PMS_P2;Temp;Humidity;BMP_temperature;BMP_pressure;BME280_temperature;BME280_humidity;BME280_pressure;Samples;Min_cycle;Max_cycle;Signal;HPM_P1;HPM_P2
2023/02/06 00:01:38;;;;;;;26.23;15.90;;;9.60;62.00;;;;;;4989921;28;20241;-53
2023/02/06 00:04:04;;;;;;;21.63;16.17;;;9.60;61.80;;;;;;4990322;28;20544;-53
2023/02/06 00:06:30;;;;;;;21.93;15.90;;;9.70;62.00;;;;;;4990075;28;20521;-56
2023/02/06 00:08:56;;;;;;;25.20;17.03;;;9.70;62.50;;;;;;4990831;28;20198;-52
2023/02/06 00:11:22;;;;;;;21.13;14.93;;;9.70;61.70;;;;;;4990811;28;20449;-53
2023/02/06 00:13:48;;;;;;;27.80;16.50;;;9.60;61.60;;;;;;4988713;28;20278;-54
2023/02/06 00:16:24;;;;;;;23.53;16.80;;;9.60;61.50;;;;;;4990175;28;20230;-53
2023/02/06 00:18:51;;;;;;;24.00;16.93;;;9.50;61.60;;;;;;4989365;28;20288;-56
2023/02/06 00:21:20;;;;;;;25.83;16.80;;;9.50;61.80;;;;;;4994144;28;20449;-56
2023/02/06 00:23:46;;;;;;;20.60;16.67;;;9.60;61.80;;;;;;4992558;28;20437;-54
2023/02/06 00:26:12;;;;;;;24.63;17.07;;;9.60;61.60;;;;;;4993895;28;20425;-53
2023/02/06 00:28:38;;;;;;;22.70;17.10;;;9.70;61.60;;;;;;4992328;28;20445;-57
2023/02/06 00:31:07;;;;;;;23.93;17.23;;;9.60;61.40;;;;;;4995700;28;20194;-55
2023/02/06 00:33:34;;;;;;;23.80;17.03;;;9.60;61.30;;;;;;4993315;28;20658;-55
2023/02/06 00:36:00;;;;;;;23.40;16.93;;;9.70;61.40;;;;;;4988039;28;20493;-54
2023/02/06 00:38:28;;;;;;;22.73;15.87;;;9.70;61.50;;;;;;4987006;28;20494;-54
2023/02/06 00:40:54;;;;;;;24.80;16.70;;;9.70;61.60;;;;;;4986397;28;20520;-54
2023/02/06 00:43:20;;;;;;;23.13;16.73;;;9.70;61.60;;;;;;4983568;28;20450;-53
2023/02/06 00:45:51;;;;;;;22.67;15.97;;;9.70;61.60;;;;;;4985350;28;20930;-53
2023/02/06 00:48:16;;;;;;;23.17;16.50;;;9.80;61.60;;;;;;4983683;28;20209;-51
2023/02/06 00:50:42;;;;;;;25.80;18.50;;;9.70;61.50;;;;;;4987910;28;20457;-55
2023/02/06 00:53:08;;;;;;;21.73;16.33;;;9.80;61.60;;;;;;4988101;28;20565;-52
2023/02/06 00:55:34;;;;;;;27.20;17.70;;;9.70;61.30;;;;;;4988911;28;20242;-54
2023/02/06 00:57:59;;;;;;;24.90;17.47;;;9.70;60.60;;;;;;4983376;28;20449;-54
2023/02/06 01:00:25;;;;;;;22.57;16.80;;;9.70;60.40;;;;;;4986586;28;20194;-54
2023/02/06 01:02:50;;;;;;;24.83;17.10;;;9.70;60.30;;;;;;4987573;28;20230;-54
2023/02/06 01:05:16;;;;;;;24.37;17.00;;;9.60;60.10;;;;;;4984354;28;20197;-55
2023/02/06 01:07:42;;;;;;;23.20;16.60;;;9.60;60.00;;;;;;4983045;28;20697;-53
2023/02/06 01:10:09;;;;;;;26.80;18.70;;;9.60;60.10;;;;;;4984541;28;20194;-54
2023/02/06 01:12:35;;;;;;;28.50;17.70;;;9.60;60.30;;;;;;4984252;28;20548;-52
2023/02/06 01:15:01;;;;;;;24.30;16.77;;;9.60;60.30;;;;;;4979749;28;20530;-54
2023/02/06 01:17:29;;;;;;;22.50;16.10;;;9.60;60.30;;;;;;4984909;28;20450;-54
2023/02/06 01:19:55;;;;;;;24.10;16.70;;;9.60;60.30;;;;;;4981670;28;20572;-53
2023/02/06 01:22:20;;;;;;;22.70;17.10;;;9.60;60.50;;;;;;4985817;28;20923;-52
2023/02/06 01:24:46;;;;;;;27.50;17.80;;;9.60;60.40;;;;;;4991465;28;20190;-54
2023/02/06 01:27:11;;;;;;;23.03;16.70;;;9.60;60.40;;;;;;4992314;28;20333;-54
2023/02/06 01:29:37;;;;;;;22.13;16.20;;;9.60;60.20;;;;;;4992887;28;20222;-53
2023/02/06 01:32:03;;;;;;;22.07;16.17;;;9.60;60.20;;;;;;4991808;28;20272;-53
2023/02/06 01:34:29;;;;;;;24.97;17.87;;;9.60;60.30;;;;;;4992940;28;20198;-54
2023/02/06 01:37:02;;;;;;;19.83;14.70;;;9.70;60.40;;;;;;4986302;28;20234;-52
2023/02/06 01:39:27;;;;;;;24.37;16.23;;;9.70;60.50;;;;;;4979710;28;20438;-54
2023/02/06 01:41:53;;;;;;;21.53;16.30;;;9.70;60.50;;;;;;4984726;28;20448;-54
2023/02/06 01:44:21;;;;;;;21.60;15.50;;;9.70;60.60;;;;;;4984652;28;20190;-54
2023/02/06 01:46:51;;;;;;;21.40;15.27;;;9.70;60.60;;;;;;4985778;28;20697;-55
2023/02/06 01:49:38;;;;;;;22.20;16.37;;;9.70;60.80;;;;;;4984900;28;20608;-55
2023/02/06 01:52:13;;;;;;;28.67;16.40;;;9.70;61.10;;;;;;4982427;28;20446;-56
2023/02/06 01:54:38;;;;;;;23.73;17.10;;;9.70;61.10;;;;;;4986689;28;20492;-52
2023/02/06 01:57:07;;;;;;;27.40;17.83;;;9.70;61.10;;;;;;4991182;28;21042;-52
2023/02/06 01:59:35;;;;;;;25.30;16.67;;;9.60;61.10;;;;;;4991411;28;20198;-54
2023/02/06 02:02:01;;;;;;;24.63;17.80;;;9.60;61.20;;;;;;4991974;28;20418;-53
2023/02/06 02:04:30;;;;;;;22.83;16.30;;;9.60;61.30;;;;;;4992309;28;20492;-54
2023/02/06 02:07:29;;;;;;;23.53;16.80;;;9.60;61.30;;;;;;4991618;28;20430;-53
2023/02/06 02:09:55;;;;;;;25.67;17.70;;;9.60;61.40;;;;;;4983630;28;20484;-54
2023/02/06 02:12:20;;;;;;;24.63;16.80;;;9.60;61.20;;;;;;4992066;28;20513;-55
2023/02/06 02:14:47;;;;;;;26.47;18.23;;;9.60;61.40;;;;;;4989480;28;20677;-55
2023/02/06 02:17:45;;;;;;;27.87;19.03;;;9.60;61.50;;;;;;4990853;28;20666;-55
2023/02/06 02:20:39;;;;;;;25.60;19.77;;;9.50;61.70;;;;;;4992265;28;20444;-55
2023/02/06 02:23:26;;;;;;;27.30;16.40;;;9.50;62.00;;;;;;4991982;28;20426;-55
2023/02/06 02:26:30;;;;;;;22.10;16.50;;;9.50;62.20;;;;;;4981636;28;20456;-54
2023/02/06 02:29:14;;;;;;;25.90;17.90;;;9.50;62.00;;;;;;4987118;28;20456;-55
2023/02/06 02:32:01;;;;;;;26.07;18.60;;;9.50;61.80;;;;;;4987150;28;20449;-55
2023/02/06 02:34:54;;;;;;;24.43;17.07;;;9.50;61.60;;;;;;4985914;28;20477;-55
2023/02/06 02:37:45;;;;;;;24.27;17.57;;;9.50;61.50;;;;;;4992359;28;20604;-56
2023/02/06 02:40:51;;;;;;;24.10;16.10;;;9.50;61.50;;;;;;4989742;28;20457;-54
2023/02/06 02:43:31;;;;;;;27.17;18.77;;;9.50;61.50;;;;;;5001002;28;20488;-55
2023/02/06 02:46:03;;;;;;;26.83;17.73;;;9.60;61.40;;;;;;4983615;28;20542;-55
2023/02/06 02:48:33;;;;;;;28.30;16.57;;;9.60;61.30;;;;;;4986124;28;20438;-54
2023/02/06 02:50:59;;;;;;;24.53;17.43;;;9.60;61.20;;;;;;4989286;28;20449;-54
2023/02/06 02:53:26;;;;;;;28.63;18.80;;;9.60;61.30;;;;;;4983734;28;20570;-56
2023/02/06 02:55:51;;;;;;;25.97;18.43;;;9.60;61.30;;;;;;4980158;28;20517;-55
2023/02/06 02:58:24;;;;;;;27.50;18.87;;;9.60;61.20;;;;;;4985760;28;20937;-56
2023/02/06 03:01:18;;;;;;;27.63;20.10;;;9.50;61.20;;;;;;4985296;28;20861;-55
2023/02/06 03:03:46;;;;;;;28.17;19.90;;;9.50;61.30;;;;;;4985156;28;20947;-55
2023/02/06 03:06:37;;;;;;;29.67;20.20;;;9.50;61.30;;;;;;4994355;28;20532;-54
2023/02/06 03:09:40;;;;;;;27.80;19.17;;;9.50;61.30;;;;;;4988326;28;20479;-52
2023/02/06 03:12:14;;;;;;;28.50;19.03;;;9.40;61.00;;;;;;4985286;28;20496;-55
2023/02/06 03:14:57;;;;;;;28.57;19.03;;;9.40;61.60;;;;;;4991676;28;20449;-54
2023/02/06 03:17:45;;;;;;;30.00;19.43;;;9.40;61.00;;;;;;4976481;28;20517;-55
2023/02/06 03:20:13;;;;;;;26.93;17.83;;;9.30;61.00;;;;;;4983371;28;20442;-55
2023/02/06 03:22:40;;;;;;;29.10;17.80;;;9.40;61.00;;;;;;4988600;28;20443;-55
2023/02/06 03:25:11;;;;;;;26.63;18.73;;;9.30;61.10;;;;;;4985627;28;20446;-55
2023/02/06 03:27:39;;;;;;;31.83;19.40;;;9.30;60.90;;;;;;4989156;28;20492;-53
2023/02/06 03:30:08;;;;;;;27.13;18.37;;;9.40;61.00;;;;;;4984795;28;21015;-56
2023/02/06 03:32:39;;;;;;;27.77;18.80;;;9.40;60.90;;;;;;4980486;28;20457;-54
2023/02/06 03:35:15;;;;;;;27.60;17.63;;;9.30;60.50;;;;;;4984819;28;20449;-55
2023/02/06 03:37:43;;;;;;;28.87;19.60;;;9.30;60.40;;;;;;4986172;28;20441;-55
2023/02/06 03:40:10;;;;;;;26.10;18.20;;;9.30;60.80;;;;;;4982072;28;20457;-55
2023/02/06 03:42:39;;;;;;;28.00;19.60;;;9.20;60.90;;;;;;4983776;28;20446;-54
2023/02/06 03:45:12;;;;;;;26.27;18.00;;;9.30;61.00;;;;;;4985460;28;20449;-54
2023/02/06 03:47:38;;;;;;;28.20;18.23;;;9.30;61.00;;;;;;4988078;28;20445;-54
2023/02/06 03:50:07;;;;;;;26.43;17.33;;;9.30;61.00;;;;;;4985743;28;20485;-55
2023/02/06 03:52:38;;;;;;;25.33;16.60;;;9.30;60.70;;;;;;4977035;28;20447;-54
2023/02/06 03:55:09;;;;;;;28.53;16.83;;;9.30;60.70;;;;;;4983467;28;20450;-55
2023/02/06 03:57:36;;;;;;;25.67;18.63;;;9.30;60.30;;;;;;4994370;28;20964;-55
2023/02/06 04:00:03;;;;;;;24.40;16.73;;;9.30;60.00;;;;;;4995744;28;20422;-54
2023/02/06 04:02:29;;;;;;;27.37;17.37;;;9.30;59.80;;;;;;5000354;28;20421;-55
2023/02/06 04:04:55;;;;;;;23.80;16.90;;;9.30;59.80;;;;;;4986187;28;20888;-52
2023/02/06 04:07:22;;;;;;;27.00;17.73;;;9.20;59.80;;;;;;4980275;28;20505;-54
2023/02/06 04:09:47;;;;;;;23.37;17.40;;;9.20;59.90;;;;;;4990819;28;20198;-54
2023/02/06 04:12:14;;;;;;;25.10;17.23;;;9.20;60.00;;;;;;4993612;28;20934;-54
2023/02/06 04:14:41;;;;;;;25.80;17.77;;;9.20;60.10;;;;;;4992565;28;20202;-54
2023/02/06 04:17:06;;;;;;;27.70;18.43;;;9.20;60.30;;;;;;4990691;28;20508;-53
2023/02/06 04:19:32;;;;;;;26.53;17.60;;;9.20;60.30;;;;;;4988634;28;20498;-54
2023/02/06 04:21:59;;;;;;;29.37;18.23;;;9.10;60.20;;;;;;4988092;28;20191;-51
2023/02/06 04:24:25;;;;;;;24.30;17.63;;;9.10;60.30;;;;;;4981863;28;20445;-55
2023/02/06 04:26:50;;;;;;;25.40;18.17;;;9.10;60.60;;;;;;4983629;28;20441;-55
2023/02/06 04:29:16;;;;;;;26.30;19.63;;;8.90;60.10;;;;;;4982029;28;20442;-52
2023/02/06 04:31:42;;;;;;;27.23;18.97;;;9.00;61.00;;;;;;4995212;28;20226;-53
2023/02/06 04:34:07;;;;;;;22.87;18.57;;;9.10;61.00;;;;;;4988945;28;20187;-53
2023/02/06 04:36:33;;;;;;;25.50;18.70;;;9.10;60.80;;;;;;4985467;28;20747;-54
2023/02/06 04:38:59;;;;;;;26.20;18.57;;;9.10;60.80;;;;;;4985759;28;20186;-51
2023/02/06 04:41:24;;;;;;;24.63;18.07;;;9.20;60.70;;;;;;4986564;28;20203;-54
2023/02/06 04:43:50;;;;;;;22.43;18.10;;;9.20;60.40;;;;;;4983682;28;20277;-54
2023/02/06 04:46:15;;;;;;;29.20;18.30;;;9.20;60.00;;;;;;4985696;28;20654;-55
2023/02/06 04:48:41;;;;;;;25.27;18.60;;;9.20;59.70;;;;;;4985238;28;20266;-54
2023/02/06 04:51:07;;;;;;;22.53;18.63;;;9.10;59.70;;;;;;4994251;28;20198;-53
2023/02/06 04:53:33;;;;;;;24.17;17.43;;;9.10;59.40;;;;;;4985268;28;20194;-58
2023/02/06 04:56:08;;;;;;;23.37;18.03;;;9.00;59.20;;;;;;4996109;28;20232;-53
2023/02/06 04:58:34;;;;;;;21.77;17.80;;;8.80;59.10;;;;;;4993518;28;20237;-52
2023/02/06 05:01:00;;;;;;;23.83;17.43;;;8.80;59.30;;;;;;4984157;28;20562;-54
2023/02/06 05:03:28;;;;;;;23.83;17.73;;;8.80;59.50;;;;;;4983714;28;21312;-55
2023/02/06 05:05:54;;;;;;;22.50;17.23;;;8.60;59.20;;;;;;4983288;28;20437;-53
2023/02/06 05:08:20;;;;;;;20.63;17.17;;;8.60;59.20;;;;;;4984364;28;20836;-54
2023/02/06 05:10:45;;;;;;;23.67;16.30;;;8.60;59.40;;;;;;4984793;28;20445;-53
2023/02/06 05:13:11;;;;;;;23.17;18.23;;;8.60;59.60;;;;;;4985563;28;20340;-55
2023/02/06 05:15:37;;;;;;;21.10;16.57;;;8.70;59.50;;;;;;4981788;28;20238;-56
2023/02/06 05:18:04;;;;;;;21.63;17.73;;;8.80;59.40;;;;;;4984890;28;20272;-55
2023/02/06 05:20:30;;;;;;;21.53;17.63;;;8.80;59.40;;;;;;4985466;28;20536;-54
2023/02/06 05:22:56;;;;;;;22.93;16.97;;;8.70;59.10;;;;;;4984102;28;20530;-54
2023/02/06 05:25:21;;;;;;;23.83;19.60;;;8.70;59.10;;;;;;4986972;28;20531;-54
2023/02/06 05:27:47;;;;;;;22.50;16.53;;;8.70;59.10;;;;;;4993455;28;20521;-54
2023/02/06 05:30:13;;;;;;;21.57;18.00;;;8.70;59.00;;;;;;4992098;28;20698;-55
2023/02/06 05:32:39;;;;;;;24.67;18.30;;;8.80;59.40;;;;;;4993264;28;20202;-55
2023/02/06 05:35:05;;;;;;;20.70;16.70;;;8.90;59.30;;;;;;4990549;28;20626;-55
2023/02/06 05:37:31;;;;;;;24.70;18.20;;;8.90;59.20;;;;;;4981248;28;20556;-55
2023/02/06 05:39:56;;;;;;;24.50;17.37;;;8.80;58.50;;;;;;4983978;28;20830;-55
2023/02/06 05:42:22;;;;;;;24.43;19.87;;;8.80;58.80;;;;;;4986477;28;20213;-52
2023/02/06 05:44:47;;;;;;;21.87;18.10;;;8.90;58.90;;;;;;4986219;28;20205;-55
2023/02/06 05:47:13;;;;;;;21.00;18.67;;;8.90;58.80;;;;;;4983538;28;20187;-56
2023/02/06 05:49:39;;;;;;;28.83;18.67;;;8.90;58.60;;;;;;4984156;28;20761;-56
2023/02/06 05:52:05;;;;;;;23.53;18.70;;;8.80;58.30;;;;;;4983533;28;20215;-55
2023/02/06 05:54:30;;;;;;;23.33;18.57;;;8.80;58.60;;;;;;4979766;28;20191;-55
2023/02/06 05:56:56;;;;;;;24.00;19.53;;;8.90;58.70;;;;;;4989041;28;20847;-56
2023/02/06 05:59:24;;;;;;;25.07;19.47;;;8.90;58.40;;;;;;4988006;28;20199;-56
2023/02/06 06:01:50;;;;;;;22.70;18.87;;;8.70;58.20;;;;;;4986862;28;20446;-54
2023/02/06 06:04:15;;;;;;;24.50;19.80;;;8.70;58.30;;;;;;4982749;28;20521;-54
2023/02/06 06:06:41;;;;;;;23.17;17.90;;;8.70;58.40;;;;;;4988495;28;20195;-55
2023/02/06 06:09:07;;;;;;;26.57;19.00;;;8.70;58.30;;;;;;4992327;28;20201;-52
2023/02/06 06:11:32;;;;;;;27.90;20.00;;;8.70;58.20;;;;;;4992657;28;20201;-55
2023/02/06 06:13:58;;;;;;;24.70;19.00;;;8.80;58.20;;;;;;4991669;28;20252;-55
2023/02/06 06:16:24;;;;;;;24.23;17.97;;;8.80;58.20;;;;;;4991477;28;20230;-55
2023/02/06 06:18:49;;;;;;;24.13;18.33;;;8.90;58.40;;;;;;4991867;28;20488;-56
2023/02/06 06:21:15;;;;;;;22.77;14.80;;;8.80;58.60;;;;;;4992338;28;20190;-57
2023/02/06 06:23:41;;;;;;;21.63;18.43;;;9.00;61.40;;;;;;4990389;28;20306;-57
2023/02/06 06:26:06;;;;;;;23.90;17.27;;;9.40;62.50;;;;;;4991732;28;20203;-56
2023/02/06 06:28:34;;;;;;;20.17;18.00;;;9.60;60.60;;;;;;4992370;28;20199;-56
2023/02/06 06:31:10;;;;;;;22.13;18.50;;;9.80;59.30;;;;;;4991624;28;20203;-56
2023/02/06 06:33:37;;;;;;;22.70;18.30;;;9.90;58.50;;;;;;4992011;28;20472;-57
2023/02/06 06:36:04;;;;;;;23.07;17.20;;;10.10;57.50;;;;;;4991430;28;20520;-57
2023/02/06 06:38:30;;;;;;;20.80;17.57;;;10.30;57.00;;;;;;4991850;28;20436;-57
2023/02/06 06:40:55;;;;;;;19.90;15.23;;;10.40;56.70;;;;;;4991955;28;20775;-56
2023/02/06 06:43:21;;;;;;;21.83;18.00;;;10.40;54.30;;;;;;4984034;28;20198;-57
2023/02/06 06:45:47;;;;;;;20.97;18.03;;;10.40;54.90;;;;;;4987293;28;20198;-56
2023/02/06 06:48:12;;;;;;;22.33;18.43;;;10.40;54.70;;;;;;4989062;28;20575;-57
2023/02/06 06:50:38;;;;;;;23.80;19.20;;;10.40;54.00;;;;;;4990000;28;20222;-56
2023/02/06 06:53:03;;;;;;;19.40;17.20;;;10.40;54.70;;;;;;4989392;28;20577;-57
2023/02/06 06:55:29;;;;;;;21.07;17.43;;;10.50;54.60;;;;;;4988218;28;20257;-55
2023/02/06 06:57:55;;;;;;;19.90;15.30;;;10.50;53.90;;;;;;4990825;28;20229;-56
2023/02/06 07:02:52;;;;;;;20.17;16.87;;;10.60;53.80;;;;;;5041181;28;20694;-57
2023/02/06 07:05:18;;;;;;;19.53;16.00;;;10.60;53.10;;;;;;5043346;28;20486;-56
2023/02/06 07:07:43;;;;;;;20.27;16.67;;;10.70;52.80;;;;;;5040946;28;20615;-57
2023/02/06 07:10:11;;;;;;;22.03;17.83;;;10.80;53.10;;;;;;5033956;28;20253;-57
2023/02/06 07:12:37;;;;;;;19.07;16.10;;;10.80;53.10;;;;;;5035011;28;20193;-56
2023/02/06 07:15:04;;;;;;;20.13;16.10;;;10.90;53.00;;;;;;5030555;28;20895;-56
2023/02/06 07:17:29;;;;;;;20.23;15.17;;;10.80;52.40;;;;;;5044988;28;20490;-56
2023/02/06 07:19:55;;;;;;;21.07;15.40;;;10.90;52.20;;;;;;5039589;28;20470;-57
2023/02/06 07:22:21;;;;;;;21.37;16.30;;;10.90;52.30;;;;;;5041931;28;20647;-56
2023/02/06 07:24:47;;;;;;;18.50;16.30;;;10.90;52.50;;;;;;5041096;28;20197;-57
2023/02/06 07:27:12;;;;;;;17.50;14.67;;;11.00;52.30;;;;;;5043358;28;20482;-56
2023/02/06 07:29:38;;;;;;;18.90;15.27;;;11.00;52.10;;;;;;5049110;28;20189;-56
2023/02/06 07:32:04;;;;;;;16.50;14.10;;;11.00;51.80;;;;;;5040816;28;20279;-57
2023/02/06 07:34:30;;;;;;;19.70;14.70;;;11.00;51.80;;;;;;5051319;28;20199;-57
2023/02/06 07:36:58;;;;;;;18.03;14.70;;;11.00;51.50;;;;;;5048319;28;20482;-56
2023/02/06 07:39:24;;;;;;;19.10;15.53;;;11.00;51.30;;;;;;5046635;28;20195;-55
2023/02/06 07:41:50;;;;;;;18.57;14.90;;;11.00;51.60;;;;;;5051729;28;20922;-55
2023/02/06 07:44:15;;;;;;;19.77;15.00;;;11.10;51.80;;;;;;5050693;28;20459;-55
2023/02/06 07:46:42;;;;;;;14.43;12.93;;;11.10;51.50;;;;;;5044057;28;20193;-55
2023/02/06 07:49:10;;;;;;;17.00;14.27;;;11.20;51.60;;;;;;5048835;28;20661;-56
2023/02/06 07:51:35;;;;;;;17.00;14.57;;;11.20;51.10;;;;;;5050147;28;21074;-55
2023/02/06 07:54:01;;;;;;;13.57;12.10;;;11.20;50.50;;;;;;5051470;28;20453;-55
2023/02/06 07:56:26;;;;;;;15.27;12.70;;;11.10;50.20;;;;;;5051766;28;20585;-54
2023/02/06 07:58:53;;;;;;;15.27;12.17;;;11.00;50.70;;;;;;5053774;28;20196;-56
2023/02/06 08:01:20;;;;;;;16.17;10.50;;;11.00;50.60;;;;;;5051734;28;20675;-57
2023/02/06 08:03:53;;;;;;;12.90;11.07;;;11.00;50.50;;;;;;5053917;28;20431;-58
2023/02/06 08:06:20;;;;;;;15.07;9.83;;;10.90;50.10;;;;;;5052371;28;20541;-57
2023/02/06 08:08:46;;;;;;;13.57;9.77;;;10.90;50.40;;;;;;5048431;28;20453;-57
2023/02/06 08:11:14;;;;;;;12.23;8.50;;;10.80;50.30;;;;;;5038999;28;20435;-56
2023/02/06 08:13:41;;;;;;;12.47;9.50;;;10.70;50.20;;;;;;5043845;28;20454;-57
2023/02/06 08:16:13;;;;;;;14.73;8.60;;;10.40;50.00;;;;;;5040590;28;20474;-57
2023/02/06 08:18:40;;;;;;;10.53;8.80;;;10.30;50.10;;;;;;5033742;28;20428;-58
2023/02/06 08:21:11;;;;;;;10.60;8.57;;;10.10;50.20;;;;;;5035798;28;20449;-56
2023/02/06 08:23:37;;;;;;;11.53;8.20;;;9.80;51.00;;;;;;5050565;28;20870;-57
2023/02/06 08:26:09;;;;;;;10.43;8.43;;;9.70;51.80;;;;;;5044453;28;20795;-57
2023/02/06 08:28:36;;;;;;;11.30;8.83;;;9.80;52.60;;;;;;5033478;28;20439;-57
2023/02/06 08:31:18;;;;;;;10.67;8.47;;;9.90;52.50;;;;;;5046435;28;21197;-57
2023/02/06 08:33:44;;;;;;;10.93;8.53;;;9.90;51.80;;;;;;5047168;28;20841;-56
2023/02/06 08:36:11;;;;;;;11.80;9.33;;;9.90;51.70;;;;;;5039689;28;20490;-57
2023/02/06 08:38:37;;;;;;;9.40;7.87;;;10.00;51.00;;;;;;5052600;28;20250;-57
2023/02/06 08:41:04;;;;;;;10.93;8.60;;;10.10;51.50;;;;;;5036104;28;20535;-57
2023/02/06 08:43:29;;;;;;;14.10;9.63;;;10.10;51.30;;;;;;5037206;28;20493;-57
2023/02/06 08:45:58;;;;;;;9.83;8.50;;;10.20;51.30;;;;;;5033521;28;20467;-57
2023/02/06 08:48:24;;;;;;;11.23;8.43;;;10.20;51.30;;;;;;5045391;28;20208;-58
2023/02/06 08:50:50;;;;;;;9.47;7.40;;;10.20;51.50;;;;;;5033090;28;20474;-57
2023/02/06 08:53:15;;;;;;;10.87;9.10;;;10.00;50.60;;;;;;5041729;28;20467;-59
2023/02/06 08:55:41;;;;;;;10.47;8.30;;;10.10;51.40;;;;;;5033479;28;20355;-57
2023/02/06 08:58:07;;;;;;;10.43;8.33;;;10.20;51.30;;;;;;5039908;28;20193;-56
2023/02/06 09:00:32;;;;;;;9.20;8.30;;;10.20;51.50;;;;;;5032536;28;20244;-57
2023/02/06 09:02:58;;;;;;;9.70;7.57;;;10.10;50.40;;;;;;5042658;28;20734;-57
2023/02/06 09:05:23;;;;;;;9.00;7.87;;;9.90;51.70;;;;;;5051244;28;20227;-57
2023/02/06 09:07:49;;;;;;;9.00;7.97;;;10.00;51.30;;;;;;5041793;28;20188;-57
2023/02/06 09:10:16;;;;;;;9.97;8.60;;;10.10;51.60;;;;;;5031281;28;20251;-57
2023/02/06 09:12:41;;;;;;;10.63;7.97;;;10.20;51.60;;;;;;5032775;28;20618;-57
2023/02/06 09:15:08;;;;;;;10.50;9.20;;;9.90;51.30;;;;;;5032686;28;20458;-56
2023/02/06 09:17:34;;;;;;;11.20;9.20;;;9.70;51.60;;;;;;5032782;28;20221;-57
2023/02/06 09:20:00;;;;;;;11.43;8.47;;;9.30;52.20;;;;;;5043314;28;20436;-57
2023/02/06 09:22:26;;;;;;;9.90;7.77;;;9.00;53.00;;;;;;5042422;28;20452;-57
2023/02/06 09:24:52;;;;;;;11.30;8.13;;;8.90;53.70;;;;;;5046540;28;20431;-57
2023/02/06 09:27:18;;;;;;;9.90;7.70;;;9.00;53.40;;;;;;5041487;28;20444;-57
2023/02/06 09:29:44;;;;;;;9.40;7.97;;;9.20;53.50;;;;;;5048507;28;20188;-57
2023/02/06 09:32:09;;;;;;;11.03;8.60;;;9.10;54.00;;;;;;5041604;28;20212;-57
2023/02/06 09:34:35;;;;;;;16.50;8.80;;;9.20;54.00;;;;;;5049138;28;20215;-59
2023/02/06 09:37:02;;;;;;;9.80;7.30;;;9.40;54.10;;;;;;5047782;28;20232;-57
2023/02/06 09:39:28;;;;;;;11.87;8.47;;;9.50;53.90;;;;;;5047745;28;20208;-58
2023/02/06 09:42:08;;;;;;;8.63;7.80;;;9.60;53.50;;;;;;5042830;28;20446;-57
2023/02/06 09:44:39;;;;;;;9.03;7.10;;;9.50;52.70;;;;;;5041389;28;20436;-58
2023/02/06 09:47:26;;;;;;;7.43;6.60;;;9.60;52.60;;;;;;5040209;28;20470;-58
2023/02/06 09:49:57;;;;;;;12.57;8.47;;;9.30;51.90;;;;;;5044207;28;20980;-57
2023/02/06 09:52:41;;;;;;;9.13;8.20;;;9.20;52.80;;;;;;5038389;28;20470;-58
2023/02/06 09:55:19;;;;;;;15.00;8.50;;;9.30;53.00;;;;;;5045594;28;20953;-57
2023/02/06 09:58:20;;;;;;;8.20;7.40;;;9.30;52.60;;;;;;5050214;28;20471;-56
2023/02/06 10:00:59;;;;;;;10.73;7.90;;;9.30;52.50;;;;;;5048642;28;20495;-58
2023/02/06 10:03:34;;;;;;;13.23;8.00;;;9.30;52.80;;;;;;5044942;28;20453;-57
2023/02/06 10:06:05;;;;;;;9.33;6.70;;;9.50;52.90;;;;;;5048049;28;20439;-57
2023/02/06 10:08:35;;;;;;;9.60;6.90;;;9.70;52.60;;;;;;5049610;28;20492;-57
2023/02/06 10:11:08;;;;;;;6.00;4.80;;;9.70;51.60;;;;;;5036668;28;20459;-57
2023/02/06 10:13:49;;;;;;;5.80;4.00;;;9.80;51.80;;;;;;5036808;28;20934;-54
2023/02/06 10:16:27;;;;;;;6.37;4.33;;;9.90;51.70;;;;;;5044411;28;20486;-57
2023/02/06 10:18:57;;;;;;;5.60;4.77;;;9.90;50.70;;;;;;5039830;28;20446;-56
2023/02/06 10:21:40;;;;;;;4.97;4.40;;;10.10;49.80;;;;;;5040706;28;20801;-53
2023/02/06 10:24:33;;;;;;;6.90;5.00;;;10.20;49.70;;;;;;5039117;28;20947;-56
2023/02/06 10:27:02;;;;;;;4.30;3.90;;;10.20;49.00;;;;;;5037437;28;20447;-56
2023/02/06 10:29:31;;;;;;;6.53;4.33;;;10.20;49.20;;;;;;5039442;28;20439;-55
2023/02/06 10:32:20;;;;;;;6.53;4.50;;;10.10;48.50;;;;;;5039019;28;20443;-56
2023/02/06 10:35:24;;;;;;;3.40;3.10;;;9.90;49.30;;;;;;5041447;28;20450;-54
2023/02/06 10:38:19;;;;;;;5.17;3.80;;;9.70;49.40;;;;;;5034053;28;20490;-54
2023/02/06 10:40:45;;;;;;;4.63;4.23;;;9.60;49.10;;;;;;5049564;28;20921;-53
2023/02/06 10:43:45;;;;;;;5.70;4.50;;;9.60;49.80;;;;;;5035611;28;20439;-56
2023/02/06 10:46:21;;;;;;;4.50;3.60;;;9.40;50.00;;;;;;5042625;28;20894;-55
2023/02/06 10:48:56;;;;;;;4.50;3.30;;;9.40;50.10;;;;;;5046796;28;20447;-52
2023/02/06 10:51:29;;;;;;;7.97;3.90;;;9.50;50.10;;;;;;5034784;28;20436;-55
2023/02/06 10:54:12;;;;;;;4.50;3.63;;;9.60;49.10;;;;;;5032086;28;20505;-55
2023/02/06 10:56:45;;;;;;;4.73;3.70;;;9.80;49.50;;;;;;5043215;28;20495;-53
2023/02/06 10:59:22;;;;;;;3.83;3.23;;;9.80;49.60;;;;;;5045096;28;20489;-54
2023/02/06 11:01:57;;;;;;;3.97;3.10;;;9.90;49.00;;;;;;5044892;28;20493;-52
2023/02/06 11:04:36;;;;;;;3.87;3.50;;;10.00;48.10;;;;;;5045279;28;20914;-52
2023/02/06 11:07:11;;;;;;;4.63;4.03;;;10.00;48.20;;;;;;5040150;28;20954;-52
2023/02/06 11:09:36;;;;;;;4.00;3.53;;;10.10;47.50;;;;;;5036817;28;20443;-53
2023/02/06 11:12:04;;;;;;;5.47;3.90;;;10.20;47.10;;;;;;5030485;28;20540;-51
2023/02/06 11:14:34;;;;;;;4.63;3.87;;;10.10;47.00;;;;;;5030990;28;20192;-54
2023/02/06 11:17:00;;;;;;;6.83;4.43;;;10.10;47.90;;;;;;5038641;28;20495;-53
2023/02/06 11:19:32;;;;;;;4.60;3.90;;;10.00;47.30;;;;;;5045996;28;20439;-54
2023/02/06 11:22:04;;;;;;;4.80;4.20;;;10.10;47.90;;;;;;5047433;28;20471;-53
2023/02/06 11:24:30;;;;;;;4.50;3.73;;;10.20;47.70;;;;;;5043635;28;20455;-55
2023/02/06 11:26:59;;;;;;;4.93;3.80;;;10.00;48.00;;;;;;5042399;28;20468;-54
2023/02/06 11:29:35;;;;;;;7.33;4.17;;;10.00;48.00;;;;;;5039884;28;20232;-51
2023/02/06 11:32:04;;;;;;;5.63;3.80;;;10.20;48.70;;;;;;5032517;28;20455;-55
2023/02/06 11:34:31;;;;;;;7.23;4.80;;;10.40;48.20;;;;;;5039143;28;20854;-55
2023/02/06 11:36:59;;;;;;;7.80;4.73;;;10.70;47.60;;;;;;5036319;28;20483;-54
2023/02/06 11:39:29;;;;;;;5.03;4.40;;;10.90;47.50;;;;;;5039921;28;20440;-56
2023/02/06 11:42:19;;;;;;;6.50;5.30;;;11.10;46.60;;;;;;5029787;28;20461;-52
2023/02/06 11:44:49;;;;;;;6.77;5.00;;;11.20;45.90;;;;;;5032082;28;20934;-52
2023/02/06 11:47:30;;;;;;;6.27;4.60;;;11.10;45.60;;;;;;5036465;28;20443;-54
2023/02/06 11:50:14;;;;;;;6.30;4.30;;;11.10;45.90;;;;;;5039505;28;20944;-55
2023/02/06 11:52:45;;;;;;;5.20;4.57;;;10.90;45.70;;;;;;5046795;28;20439;-54
2023/02/06 11:55:27;;;;;;;9.07;4.93;;;10.90;45.80;;;;;;5044292;28;20426;-52
2023/02/06 11:58:20;;;;;;;5.73;4.60;;;10.80;45.90;;;;;;5040301;28;20499;-55
2023/02/06 12:00:51;;;;;;;6.23;4.97;;;10.50;46.00;;;;;;5036891;28;20484;-53
2023/02/06 12:03:53;;;;;;;6.60;5.43;;;10.30;46.30;;;;;;5042900;28;20744;-52
2023/02/06 12:06:35;;;;;;;5.83;4.77;;;10.30;46.70;;;;;;5040973;28;20451;-51
2023/02/06 12:09:04;;;;;;;11.10;7.60;;;10.30;47.00;;;;;;5033280;28;20462;-53
2023/02/06 12:11:42;;;;;;;8.70;7.20;;;10.30;47.10;;;;;;5048214;28;20773;-55
2023/02/06 12:14:17;;;;;;;9.00;6.30;;;10.20;47.20;;;;;;5036111;28;20480;-52
2023/02/06 12:16:46;;;;;;;6.17;5.57;;;10.10;47.40;;;;;;5033450;28;20479;-55
2023/02/06 12:19:17;;;;;;;7.67;6.23;;;10.10;47.70;;;;;;5037961;28;20876;-51
2023/02/06 12:21:48;;;;;;;9.10;5.43;;;10.00;47.60;;;;;;5048847;28;20466;-51
2023/02/06 12:24:19;;;;;;;7.00;6.30;;;9.80;48.50;;;;;;5050180;28;20534;-55
2023/02/06 12:26:47;;;;;;;7.87;6.47;;;9.90;49.10;;;;;;5041999;28;20435;-54
2023/02/06 12:29:21;;;;;;;9.50;7.07;;;9.90;49.50;;;;;;5050878;28;20439;-53
2023/02/06 12:31:53;;;;;;;8.47;7.53;;;9.90;49.60;;;;;;5044520;28;20485;-52
2023/02/06 12:34:39;;;;;;;9.43;6.97;;;9.80;49.70;;;;;;5044154;28;20535;-53
2023/02/06 12:37:31;;;;;;;9.97;7.57;;;9.90;49.70;;;;;;5047751;28;20489;-52
2023/02/06 12:40:00;;;;;;;8.23;6.10;;;9.80;49.90;;;;;;5034003;28;20542;-54
2023/02/06 12:42:31;;;;;;;7.30;5.83;;;9.90;50.20;;;;;;5046833;28;20498;-55
2023/02/06 12:45:13;;;;;;;8.33;5.93;;;10.00;49.20;;;;;;5043386;28;20450;-55
2023/02/06 12:47:54;;;;;;;6.37;5.77;;;10.00;48.70;;;;;;5040354;28;20451;-54
2023/02/06 12:50:22;;;;;;;7.67;5.00;;;10.00;48.70;;;;;;5042073;28;21081;-51
2023/02/06 12:53:34;;;;;;;6.90;6.07;;;9.80;48.10;;;;;;5045989;28;20435;-55
2023/02/06 12:56:03;;;;;;;5.97;5.13;;;9.40;48.90;;;;;;4999963;28;21055;-55
2023/02/06 12:58:59;;;;;;;6.53;5.93;;;9.60;49.50;;;;;;5046606;28;20454;-54
2023/02/06 13:01:32;;;;;;;5.00;4.50;;;9.60;48.60;;;;;;5025637;28;20479;-54